sensor_id;sensor_type;location;lat;lon;timestamp;P1;durP1;ratioP1;P2;durP2;ratioP2
78197;SDS011;67472;51.554;7.812;2024-01-30T00:00:26;10.48;;;7.28;;
78197;SDS011;67472;51.554;7.812;2024-01-30T00:03:13;11.05;;;7.28;;
78197;SDS011;67472;51.554;7.812;2024-01-30T00:06:00;8.80;;;6.72;;
78197;SDS011;67472;51.554;7.812;2024-01-30T00:08:49;10.43;;;7.20;;
78197;SDS011;67472;51.554;7.812;2024-01-30T00:11:36;10.75;;;7.45;;
78197;SDS011;67472;51.554;7.812;2024-01-30T00:14:24;10.00;;;7.00;;
78197;SDS011;67472;51.554;7.812;2024-01-30T00:17:12;11.20;;;7.05;;
78197;SDS011;67472;51.554;7.812;2024-01-30T00:19:59;8.52;;;7.05;;
78197;SDS011;67472;51.554;7.812;2024-01-30T00:22:51;11.73;;;7.38;;
78197;SDS011;67472;51.554;7.812;2024-01-30T00:25:37;12.35;;;7.18;;
78197;SDS011;67472;51.554;7.812;2024-01-30T00:28:24;12.20;;;6.93;;
78197;SDS011;67472;51.554;7.812;2024-01-30T00:31:16;12.95;;;7.32;;
78197;SDS011;67472;51.554;7.812;2024-01-30T00:34:17;9.05;;;6.97;;
78197;SDS011;67472;51.554;7.812;2024-01-30T00:37:07;12.85;;;6.80;;
78197;SDS011;67472;51.554;7.812;2024-01-30T00:39:54;10.90;;;7.25;;
78197;SDS011;67472;51.554;7.812;2024-01-30T00:42:47;11.63;;;7.80;;
78197;SDS011;67472;51.554;7.812;2024-01-30T00:45:34;15.30;;;7.97;;
78197;SDS011;67472;51.554;7.812;2024-01-30T00:51:24;9.85;;;7.53;;
78197;SDS011;67472;51.554;7.812;2024-01-30T00:54:10;13.38;;;8.45;;
78197;SDS011;67472;51.554;7.812;2024-01-30T00:56:57;12.80;;;8.07;;
78197;SDS011;67472;51.554;7.812;2024-01-30T00:59:44;14.85;;;7.88;;
78197;SDS011;67472;51.554;7.812;2024-01-30T01:02:31;15.07;;;8.07;;
78197;SDS011;67472;51.554;7.812;2024-01-30T01:05:19;12.63;;;7.22;;
78197;SDS011;67472;51.554;7.812;2024-01-30T01:08:05;10.95;;;7.53;;
78197;SDS011;67472;51.554;7.812;2024-01-30T01:10:53;12.20;;;7.90;;
78197;SDS011;67472;51.554;7.812;2024-01-30T01:13:41;12.63;;;7.30;;
78197;SDS011;67472;51.554;7.812;2024-01-30T01:16:27;10.00;;;6.95;;
78197;SDS011;67472;51.554;7.812;2024-01-30T01:19:14;14.13;;;8.48;;
78197;SDS011;67472;51.554;7.812;2024-01-30T01:22:02;11.60;;;7.97;;
78197;SDS011;67472;51.554;7.812;2024-01-30T01:24:49;11.52;;;7.63;;
78197;SDS011;67472;51.554;7.812;2024-01-30T01:27:35;10.82;;;7.03;;
78197;SDS011;67472;51.554;7.812;2024-01-30T01:30:25;13.27;;;7.30;;
78197;SDS011;67472;51.554;7.812;2024-01-30T01:33:12;14.48;;;8.30;;
78197;SDS011;67472;51.554;7.812;2024-01-30T01:35:59;15.60;;;7.80;;
78197;SDS011;67472;51.554;7.812;2024-01-30T01:38:48;13.50;;;7.18;;
78197;SDS011;67472;51.554;7.812;2024-01-30T01:41:34;11.13;;;7.45;;
78197;SDS011;67472;51.554;7.812;2024-01-30T01:44:21;10.88;;;7.43;;
78197;SDS011;67472;51.554;7.812;2024-01-30T01:47:07;13.13;;;7.60;;
78197;SDS011;67472;51.554;7.812;2024-01-30T01:49:53;10.93;;;8.05;;
78197;SDS011;67472;51.554;7.812;2024-01-30T01:52:40;12.48;;;8.48;;
78197;SDS011;67472;51.554;7.812;2024-01-30T01:55:29;9.40;;;7.68;;
78197;SDS011;67472;51.554;7.812;2024-01-30T01:58:16;14.38;;;8.07;;
78197;SDS011;67472;51.554;7.812;2024-01-30T02:01:05;17.77;;;8.75;;
78197;SDS011;67472;51.554;7.812;2024-01-30T02:03:51;11.23;;;7.55;;
78197;SDS011;67472;51.554;7.812;2024-01-30T02:06:38;8.48;;;7.13;;
78197;SDS011;67472;51.554;7.812;2024-01-30T02:09:25;10.77;;;7.88;;
78197;SDS011;67472;51.554;7.812;2024-01-30T02:12:13;10.80;;;8.13;;
78197;SDS011;67472;51.554;7.812;2024-01-30T02:15:00;10.80;;;7.07;;
78197;SDS011;67472;51.554;7.812;2024-01-30T02:17:46;12.02;;;7.20;;
78197;SDS011;67472;51.554;7.812;2024-01-30T02:20:33;10.10;;;7.53;;
78197;SDS011;67472;51.554;7.812;2024-01-30T02:23:23;11.27;;;7.43;;
78197;SDS011;67472;51.554;7.812;2024-01-30T02:26:10;14.32;;;7.32;;
78197;SDS011;67472;51.554;7.812;2024-01-30T02:28:57;9.40;;;7.28;;
78197;SDS011;67472;51.554;7.812;2024-01-30T02:31:44;14.02;;;7.53;;
78197;SDS011;67472;51.554;7.812;2024-01-30T02:34:31;11.75;;;6.78;;
78197;SDS011;67472;51.554;7.812;2024-01-30T02:37:20;11.00;;;6.60;;
78197;SDS011;67472;51.554;7.812;2024-01-30T02:40:25;12.68;;;7.07;;
78197;SDS011;67472;51.554;7.812;2024-01-30T02:43:13;10.93;;;6.85;;
78197;SDS011;67472;51.554;7.812;2024-01-30T02:45:59;12.02;;;7.38;;
78197;SDS011;67472;51.554;7.812;2024-01-30T02:48:48;10.38;;;6.05;;
78197;SDS011;67472;51.554;7.812;2024-01-30T02:51:36;11.65;;;7.03;;
78197;SDS011;67472;51.554;7.812;2024-01-30T02:54:23;13.15;;;7.50;;
78197;SDS011;67472;51.554;7.812;2024-01-30T02:57:10;11.85;;;6.85;;
78197;SDS011;67472;51.554;7.812;2024-01-30T02:59:57;11.88;;;6.63;;
78197;SDS011;67472;51.554;7.812;2024-01-30T03:02:59;10.10;;;7.53;;
78197;SDS011;67472;51.554;7.812;2024-01-30T03:05:45;10.02;;;6.65;;
78197;SDS011;67472;51.554;7.812;2024-01-30T03:08:32;9.25;;;6.85;;
78197;SDS011;67472;51.554;7.812;2024-01-30T03:11:20;10.85;;;6.65;;
78197;SDS011;67472;51.554;7.812;2024-01-30T03:14:08;12.25;;;7.07;;
78197;SDS011;67472;51.554;7.812;2024-01-30T03:16:56;14.65;;;7.07;;
78197;SDS011;67472;51.554;7.812;2024-01-30T03:19:42;10.95;;;7.00;;
78197;SDS011;67472;51.554;7.812;2024-01-30T03:22:28;11.85;;;7.25;;
78197;SDS011;67472;51.554;7.812;2024-01-30T03:25:14;10.27;;;6.97;;
78197;SDS011;67472;51.554;7.812;2024-01-30T03:28:01;11.43;;;6.60;;
78197;SDS011;67472;51.554;7.812;2024-01-30T03:30:48;11.05;;;6.75;;
78197;SDS011;67472;51.554;7.812;2024-01-30T03:33:36;11.75;;;6.97;;
78197;SDS011;67472;51.554;7.812;2024-01-30T03:36:23;10.75;;;6.80;;
78197;SDS011;67472;51.554;7.812;2024-01-30T03:39:09;10.15;;;6.90;;
78197;SDS011;67472;51.554;7.812;2024-01-30T03:41:55;8.65;;;6.65;;
78197;SDS011;67472;51.554;7.812;2024-01-30T03:44:42;8.68;;;6.43;;
78197;SDS011;67472;51.554;7.812;2024-01-30T03:47:31;12.93;;;7.30;;
78197;SDS011;67472;51.554;7.812;2024-01-30T03:50:21;11.98;;;6.57;;
78197;SDS011;67472;51.554;7.812;2024-01-30T03:53:15;12.25;;;7.10;;
78197;SDS011;67472;51.554;7.812;2024-01-30T03:56:14;9.30;;;6.32;;
78197;SDS011;67472;51.554;7.812;2024-01-30T03:59:10;12.07;;;6.85;;
78197;SDS011;67472;51.554;7.812;2024-01-30T04:02:04;10.77;;;6.40;;
78197;SDS011;67472;51.554;7.812;2024-01-30T04:04:52;10.90;;;6.70;;
78197;SDS011;67472;51.554;7.812;2024-01-30T04:07:54;10.43;;;6.82;;
78197;SDS011;67472;51.554;7.812;2024-01-30T04:10:40;10.25;;;7.05;;
78197;SDS011;67472;51.554;7.812;2024-01-30T04:13:28;9.65;;;6.72;;
78197;SDS011;67472;51.554;7.812;2024-01-30T04:16:21;9.82;;;6.22;;
78197;SDS011;67472;51.554;7.812;2024-01-30T04:19:08;14.60;;;5.72;;
78197;SDS011;67472;51.554;7.812;2024-01-30T04:21:59;13.50;;;6.55;;
78197;SDS011;67472;51.554;7.812;2024-01-30T04:24:49;12.95;;;6.20;;
78197;SDS011;67472;51.554;7.812;2024-01-30T04:27:46;10.35;;;6.53;;
78197;SDS011;67472;51.554;7.812;2024-01-30T04:30:38;8.13;;;5.60;;
78197;SDS011;67472;51.554;7.812;2024-01-30T04:33:26;9.07;;;5.60;;
78197;SDS011;67472;51.554;7.812;2024-01-30T04:36:55;13.02;;;5.80;;
78197;SDS011;67472;51.554;7.812;2024-01-30T04:39:58;12.10;;;6.72;;
78197;SDS011;67472;51.554;7.812;2024-01-30T04:42:46;9.23;;;6.72;;
78197;SDS011;67472;51.554;7.812;2024-01-30T04:45:36;11.15;;;6.65;;
78197;SDS011;67472;51.554;7.812;2024-01-30T04:48:31;12.07;;;6.13;;
78197;SDS011;67472;51.554;7.812;2024-01-30T04:51:21;10.60;;;6.18;;
78197;SDS011;67472;51.554;7.812;2024-01-30T04:54:07;8.57;;;6.13;;
78197;SDS011;67472;51.554;7.812;2024-01-30T04:56:55;9.93;;;6.10;;
78197;SDS011;67472;51.554;7.812;2024-01-30T04:59:42;12.73;;;7.57;;
78197;SDS011;67472;51.554;7.812;2024-01-30T05:02:28;8.20;;;5.55;;
78197;SDS011;67472;51.554;7.812;2024-01-30T05:05:14;8.43;;;5.80;;
78197;SDS011;67472;51.554;7.812;2024-01-30T05:08:01;11.10;;;6.25;;
78197;SDS011;67472;51.554;7.812;2024-01-30T05:10:48;8.57;;;6.25;;
78197;SDS011;67472;51.554;7.812;2024-01-30T05:13:38;10.18;;;6.18;;
78197;SDS011;67472;51.554;7.812;2024-01-30T05:16:26;8.00;;;5.85;;
78197;SDS011;67472;51.554;7.812;2024-01-30T05:19:15;9.40;;;5.78;;
78197;SDS011;67472;51.554;7.812;2024-01-30T05:22:05;7.82;;;6.40;;
78197;SDS011;67472;51.554;7.812;2024-01-30T05:25:05;10.48;;;6.93;;
78197;SDS011;67472;51.554;7.812;2024-01-30T05:27:54;10.85;;;6.50;;
78197;SDS011;67472;51.554;7.812;2024-01-30T05:30:44;7.32;;;5.30;;
78197;SDS011;67472;51.554;7.812;2024-01-30T05:33:31;11.07;;;5.85;;
78197;SDS011;67472;51.554;7.812;2024-01-30T05:36:17;9.30;;;5.60;;
78197;SDS011;67472;51.554;7.812;2024-01-30T05:39:05;9.57;;;6.00;;
78197;SDS011;67472;51.554;7.812;2024-01-30T05:41:51;10.48;;;5.63;;
78197;SDS011;67472;51.554;7.812;2024-01-30T05:44:39;10.85;;;6.03;;
78197;SDS011;67472;51.554;7.812;2024-01-30T05:47:28;8.27;;;5.45;;
78197;SDS011;67472;51.554;7.812;2024-01-30T05:50:14;7.35;;;4.75;;
78197;SDS011;67472;51.554;7.812;2024-01-30T05:53:03;10.57;;;5.60;;
78197;SDS011;67472;51.554;7.812;2024-01-30T05:55:57;8.70;;;5.85;;
78197;SDS011;67472;51.554;7.812;2024-01-30T05:58:56;11.43;;;5.93;;
78197;SDS011;67472;51.554;7.812;2024-01-30T06:01:45;8.88;;;5.50;;
78197;SDS011;67472;51.554;7.812;2024-01-30T06:04:34;7.13;;;5.07;;
78197;SDS011;67472;51.554;7.812;2024-01-30T06:07:22;10.40;;;6.45;;
78197;SDS011;67472;51.554;7.812;2024-01-30T06:10:23;10.52;;;6.28;;
78197;SDS011;67472;51.554;7.812;2024-01-30T06:13:10;10.98;;;6.25;;
78197;SDS011;67472;51.554;7.812;2024-01-30T06:16:10;10.85;;;6.10;;
78197;SDS011;67472;51.554;7.812;2024-01-30T06:18:58;7.57;;;5.85;;
78197;SDS011;67472;51.554;7.812;2024-01-30T06:21:46;11.00;;;5.60;;
78197;SDS011;67472;51.554;7.812;2024-01-30T06:24:34;11.13;;;6.75;;
78197;SDS011;67472;51.554;7.812;2024-01-30T06:27:20;6.82;;;5.65;;
78197;SDS011;67472;51.554;7.812;2024-01-30T06:30:06;10.95;;;6.40;;
78197;SDS011;67472;51.554;7.812;2024-01-30T06:32:53;9.50;;;5.47;;
78197;SDS011;67472;51.554;7.812;2024-01-30T06:35:40;9.13;;;6.15;;
78197;SDS011;67472;51.554;7.812;2024-01-30T06:38:27;11.35;;;6.90;;
78197;SDS011;67472;51.554;7.812;2024-01-30T06:41:14;10.10;;;5.95;;
78197;SDS011;67472;51.554;7.812;2024-01-30T06:44:01;9.60;;;6.93;;
78197;SDS011;67472;51.554;7.812;2024-01-30T06:46:53;9.80;;;6.95;;
78197;SDS011;67472;51.554;7.812;2024-01-30T06:49:42;8.45;;;5.93;;
78197;SDS011;67472;51.554;7.812;2024-01-30T06:52:29;8.95;;;6.95;;
78197;SDS011;67472;51.554;7.812;2024-01-30T06:55:18;10.05;;;6.40;;
78197;SDS011;67472;51.554;7.812;2024-01-30T06:58:07;11.25;;;6.88;;
78197;SDS011;67472;51.554;7.812;2024-01-30T07:00:54;8.50;;;7.03;;
78197;SDS011;67472;51.554;7.812;2024-01-30T07:03:41;10.25;;;6.20;;
78197;SDS011;67472;51.554;7.812;2024-01-30T07:06:28;11.27;;;6.32;;
78197;SDS011;67472;51.554;7.812;2024-01-30T07:09:14;12.25;;;6.47;;
78197;SDS011;67472;51.554;7.812;2024-01-30T07:12:02;10.73;;;6.65;;
78197;SDS011;67472;51.554;7.812;2024-01-30T07:14:49;13.55;;;6.22;;
78197;SDS011;67472;51.554;7.812;2024-01-30T07:17:37;8.52;;;6.72;;
78197;SDS011;67472;51.554;7.812;2024-01-30T07:20:24;10.05;;;6.80;;
78197;SDS011;67472;51.554;7.812;2024-01-30T07:23:10;9.38;;;6.63;;
78197;SDS011;67472;51.554;7.812;2024-01-30T07:25:59;9.48;;;6.40;;
78197;SDS011;67472;51.554;7.812;2024-01-30T07:28:47;12.23;;;6.40;;
78197;SDS011;67472;51.554;7.812;2024-01-30T07:31:36;8.20;;;6.18;;
78197;SDS011;67472;51.554;7.812;2024-01-30T07:34:23;8.70;;;5.57;;
78197;SDS011;67472;51.554;7.812;2024-01-30T07:37:09;9.07;;;6.25;;
78197;SDS011;67472;51.554;7.812;2024-01-30T07:40:00;8.00;;;5.50;;
78197;SDS011;67472;51.554;7.812;2024-01-30T07:42:51;7.95;;;5.38;;
78197;SDS011;67472;51.554;7.812;2024-01-30T07:45:42;8.23;;;5.22;;
78197;SDS011;67472;51.554;7.812;2024-01-30T07:48:29;9.07;;;5.28;;
78197;SDS011;67472;51.554;7.812;2024-01-30T07:51:29;8.73;;;6.07;;
78197;SDS011;67472;51.554;7.812;2024-01-30T07:54:18;11.20;;;7.72;;
78197;SDS011;67472;51.554;7.812;2024-01-30T07:57:08;14.15;;;8.15;;
78197;SDS011;67472;51.554;7.812;2024-01-30T07:59:54;10.13;;;6.25;;
78197;SDS011;67472;51.554;7.812;2024-01-30T08:02:44;8.48;;;6.38;;
78197;SDS011;67472;51.554;7.812;2024-01-30T08:05:34;10.32;;;6.00;;
78197;SDS011;67472;51.554;7.812;2024-01-30T08:08:20;7.55;;;5.60;;
78197;SDS011;67472;51.554;7.812;2024-01-30T08:11:21;10.35;;;5.75;;
78197;SDS011;67472;51.554;7.812;2024-01-30T08:14:13;11.48;;;6.40;;
78197;SDS011;67472;51.554;7.812;2024-01-30T08:17:02;8.85;;;7.45;;
78197;SDS011;67472;51.554;7.812;2024-01-30T08:19:51;7.88;;;4.95;;
78197;SDS011;67472;51.554;7.812;2024-01-30T08:22:38;6.70;;;4.95;;
78197;SDS011;67472;51.554;7.812;2024-01-30T08:25:25;8.15;;;5.68;;
78197;SDS011;67472;51.554;7.812;2024-01-30T08:28:11;8.10;;;5.40;;
78197;SDS011;67472;51.554;7.812;2024-01-30T08:30:57;6.80;;;5.55;;
78197;SDS011;67472;51.554;7.812;2024-01-30T08:33:44;9.38;;;5.93;;
78197;SDS011;67472;51.554;7.812;2024-01-30T08:36:32;12.90;;;5.80;;
78197;SDS011;67472;51.554;7.812;2024-01-30T08:39:18;8.35;;;5.68;;
78197;SDS011;67472;51.554;7.812;2024-01-30T08:42:04;10.10;;;5.70;;
78197;SDS011;67472;51.554;7.812;2024-01-30T08:44:54;9.43;;;5.18;;
78197;SDS011;67472;51.554;7.812;2024-01-30T08:47:40;6.63;;;5.00;;
78197;SDS011;67472;51.554;7.812;2024-01-30T08:50:26;6.10;;;5.22;;
78197;SDS011;67472;51.554;7.812;2024-01-30T08:53:14;8.30;;;5.05;;
78197;SDS011;67472;51.554;7.812;2024-01-30T08:56:01;7.78;;;4.95;;
78197;SDS011;67472;51.554;7.812;2024-01-30T08:58:48;8.10;;;5.43;;
78197;SDS011;67472;51.554;7.812;2024-01-30T09:01:34;9.05;;;5.45;;
78197;SDS011;67472;51.554;7.812;2024-01-30T09:04:21;8.07;;;5.30;;
78197;SDS011;67472;51.554;7.812;2024-01-30T09:07:08;13.27;;;5.35;;
78197;SDS011;67472;51.554;7.812;2024-01-30T09:10:00;12.27;;;5.80;;
78197;SDS011;67472;51.554;7.812;2024-01-30T09:12:47;8.90;;;5.25;;
78197;SDS011;67472;51.554;7.812;2024-01-30T09:15:34;11.90;;;6.50;;
78197;SDS011;67472;51.554;7.812;2024-01-30T09:18:20;11.60;;;5.95;;
78197;SDS011;67472;51.554;7.812;2024-01-30T09:21:07;6.43;;;5.68;;
78197;SDS011;67472;51.554;7.812;2024-01-30T09:23:54;11.63;;;5.15;;
78197;SDS011;67472;51.554;7.812;2024-01-30T09:26:42;9.63;;;4.53;;
78197;SDS011;67472;51.554;7.812;2024-01-30T09:29:28;9.65;;;5.03;;
78197;SDS011;67472;51.554;7.812;2024-01-30T09:32:14;7.85;;;5.32;;
78197;SDS011;67472;51.554;7.812;2024-01-30T09:35:02;6.90;;;4.80;;
78197;SDS011;67472;51.554;7.812;2024-01-30T09:37:49;7.57;;;5.93;;
78197;SDS011;67472;51.554;7.812;2024-01-30T09:40:36;10.52;;;5.13;;
78197;SDS011;67472;51.554;7.812;2024-01-30T09:43:24;9.55;;;5.45;;
78197;SDS011;67472;51.554;7.812;2024-01-30T09:46:12;8.20;;;5.43;;
78197;SDS011;67472;51.554;7.812;2024-01-30T09:49:02;6.82;;;4.57;;
78197;SDS011;67472;51.554;7.812;2024-01-30T09:51:49;8.02;;;5.40;;
78197;SDS011;67472;51.554;7.812;2024-01-30T09:54:36;11.75;;;4.88;;
78197;SDS011;67472;51.554;7.812;2024-01-30T09:57:24;7.90;;;5.07;;
78197;SDS011;67472;51.554;7.812;2024-01-30T10:00:13;4.97;;;4.43;;
78197;SDS011;67472;51.554;7.812;2024-01-30T10:03:01;7.35;;;4.25;;
78197;SDS011;67472;51.554;7.812;2024-01-30T10:05:48;4.35;;;3.53;;
78197;SDS011;67472;51.554;7.812;2024-01-30T10:08:38;4.22;;;3.83;;
78197;SDS011;67472;51.554;7.812;2024-01-30T10:11:26;8.40;;;4.50;;
78197;SDS011;67472;51.554;7.812;2024-01-30T10:14:13;11.05;;;4.90;;
78197;SDS011;67472;51.554;7.812;2024-01-30T10:17:01;9.80;;;4.70;;
78197;SDS011;67472;51.554;7.812;2024-01-30T10:19:48;10.68;;;4.68;;
78197;SDS011;67472;51.554;7.812;2024-01-30T10:22:36;7.07;;;4.13;;
78197;SDS011;67472;51.554;7.812;2024-01-30T10:25:22;8.80;;;4.75;;
78197;SDS011;67472;51.554;7.812;2024-01-30T10:28:09;8.27;;;3.90;;
78197;SDS011;67472;51.554;7.812;2024-01-30T10:30:59;7.18;;;4.57;;
78197;SDS011;67472;51.554;7.812;2024-01-30T10:33:47;6.72;;;4.63;;
78197;SDS011;67472;51.554;7.812;2024-01-30T10:36:40;7.05;;;4.22;;
78197;SDS011;67472;51.554;7.812;2024-01-30T10:39:31;8.38;;;4.30;;
78197;SDS011;67472;51.554;7.812;2024-01-30T10:42:25;7.47;;;4.13;;
78197;SDS011;67472;51.554;7.812;2024-01-30T10:45:20;6.75;;;3.92;;
78197;SDS011;67472;51.554;7.812;2024-01-30T10:48:12;7.15;;;4.50;;
78197;SDS011;67472;51.554;7.812;2024-01-30T10:51:02;6.28;;;4.32;;
78197;SDS011;67472;51.554;7.812;2024-01-30T10:53:51;7.65;;;4.25;;
78197;SDS011;67472;51.554;7.812;2024-01-30T10:56:39;7.75;;;4.32;;
78197;SDS011;67472;51.554;7.812;2024-01-30T10:59:38;8.60;;;4.50;;
78197;SDS011;67472;51.554;7.812;2024-01-30T11:02:25;5.40;;;4.20;;
78197;SDS011;67472;51.554;7.812;2024-01-30T11:05:13;5.85;;;3.97;;
78197;SDS011;67472;51.554;7.812;2024-01-30T11:08:14;5.15;;;3.97;;
78197;SDS011;67472;51.554;7.812;2024-01-30T11:11:02;8.48;;;4.10;;
78197;SDS011;67472;51.554;7.812;2024-01-30T11:14:00;7.13;;;4.38;;
78197;SDS011;67472;51.554;7.812;2024-01-30T11:16:51;9.00;;;4.53;;
78197;SDS011;67472;51.554;7.812;2024-01-30T11:19:41;6.85;;;4.25;;
78197;SDS011;67472;51.554;7.812;2024-01-30T11:22:30;6.65;;;4.28;;
78197;SDS011;67472;51.554;7.812;2024-01-30T11:25:19;7.32;;;4.70;;
78197;SDS011;67472;51.554;7.812;2024-01-30T11:28:18;9.65;;;4.53;;
78197;SDS011;67472;51.554;7.812;2024-01-30T11:31:05;7.03;;;4.28;;
78197;SDS011;67472;51.554;7.812;2024-01-30T11:33:53;11.30;;;4.97;;
78197;SDS011;67472;51.554;7.812;2024-01-30T11:36:43;8.85;;;4.10;;
78197;SDS011;67472;51.554;7.812;2024-01-30T11:39:39;7.05;;;3.90;;
78197;SDS011;67472;51.554;7.812;2024-01-30T11:42:33;5.32;;;3.90;;
78197;SDS011;67472;51.554;7.812;2024-01-30T11:45:35;11.73;;;4.93;;
78197;SDS011;67472;51.554;7.812;2024-01-30T11:48:28;6.88;;;4.18;;
78197;SDS011;67472;51.554;7.812;2024-01-30T11:51:27;8.07;;;4.30;;
78197;SDS011;67472;51.554;7.812;2024-01-30T11:54:21;9.52;;;4.97;;
78197;SDS011;67472;51.554;7.812;2024-01-30T11:57:11;9.43;;;4.90;;
78197;SDS011;67472;51.554;7.812;2024-01-30T12:00:13;6.40;;;5.05;;
78197;SDS011;67472;51.554;7.812;2024-01-30T12:03:01;10.45;;;4.63;;
78197;SDS011;67472;51.554;7.812;2024-01-30T12:05:55;8.85;;;4.72;;
78197;SDS011;67472;51.554;7.812;2024-01-30T12:08:57;9.07;;;4.90;;
78197;SDS011;67472;51.554;7.812;2024-01-30T12:11:54;9.25;;;4.93;;
78197;SDS011;67472;51.554;7.812;2024-01-30T12:14:41;11.95;;;5.20;;
78197;SDS011;67472;51.554;7.812;2024-01-30T12:17:47;9.82;;;4.80;;
78197;SDS011;67472;51.554;7.812;2024-01-30T12:20:39;9.10;;;5.10;;
78197;SDS011;67472;51.554;7.812;2024-01-30T12:23:26;8.30;;;5.30;;
78197;SDS011;67472;51.554;7.812;2024-01-30T12:26:21;13.90;;;4.90;;
78197;SDS011;67472;51.554;7.812;2024-01-30T12:29:08;9.07;;;5.07;;
78197;SDS011;67472;51.554;7.812;2024-01-30T12:31:54;18.95;;;5.85;;
78197;SDS011;67472;51.554;7.812;2024-01-30T12:34:43;9.27;;;4.90;;
78197;SDS011;67472;51.554;7.812;2024-01-30T12:37:30;8.98;;;5.13;;
78197;SDS011;67472;51.554;7.812;2024-01-30T12:40:17;13.70;;;5.28;;
78197;SDS011;67472;51.554;7.812;2024-01-30T12:43:04;10.18;;;5.20;;
78197;SDS011;67472;51.554;7.812;2024-01-30T12:45:52;12.32;;;5.32;;
78197;SDS011;67472;51.554;7.812;2024-01-30T12:48:39;12.43;;;5.07;;
78197;SDS011;67472;51.554;7.812;2024-01-30T12:51:30;16.35;;;5.13;;
78197;SDS011;67472;51.554;7.812;2024-01-30T12:54:16;13.82;;;5.00;;
78197;SDS011;67472;51.554;7.812;2024-01-30T12:57:02;8.82;;;4.97;;
78197;SDS011;67472;51.554;7.812;2024-01-30T12:59:49;18.52;;;5.57;;
78197;SDS011;67472;51.554;7.812;2024-01-30T13:02:35;11.68;;;5.30;;
78197;SDS011;67472;51.554;7.812;2024-01-30T13:05:22;10.75;;;5.00;;
78197;SDS011;67472;51.554;7.812;2024-01-30T13:08:11;10.75;;;5.10;;
78197;SDS011;67472;51.554;7.812;2024-01-30T13:10:57;15.40;;;5.03;;
78197;SDS011;67472;51.554;7.812;2024-01-30T13:13:44;12.65;;;5.32;;
78197;SDS011;67472;51.554;7.812;2024-01-30T13:16:31;14.60;;;5.90;;
78197;SDS011;67472;51.554;7.812;2024-01-30T13:19:17;13.57;;;5.63;;
78197;SDS011;67472;51.554;7.812;2024-01-30T13:22:04;11.85;;;5.47;;
78197;SDS011;67472;51.554;7.812;2024-01-30T13:24:53;16.92;;;6.00;;
78197;SDS011;67472;51.554;7.812;2024-01-30T13:27:40;10.13;;;6.38;;
78197;SDS011;67472;51.554;7.812;2024-01-30T13:30:27;10.68;;;5.50;;
78197;SDS011;67472;51.554;7.812;2024-01-30T13:33:13;9.70;;;5.88;;
78197;SDS011;67472;51.554;7.812;2024-01-30T13:36:00;12.35;;;5.70;;
78197;SDS011;67472;51.554;7.812;2024-01-30T13:38:46;9.93;;;5.63;;
78197;SDS011;67472;51.554;7.812;2024-01-30T13:41:35;13.73;;;5.78;;
78197;SDS011;67472;51.554;7.812;2024-01-30T13:44:24;14.07;;;5.90;;
78197;SDS011;67472;51.554;7.812;2024-01-30T13:47:12;9.45;;;5.53;;
78197;SDS011;67472;51.554;7.812;2024-01-30T13:50:00;14.00;;;5.95;;
78197;SDS011;67472;51.554;7.812;2024-01-30T13:52:47;14.93;;;6.00;;
78197;SDS011;67472;51.554;7.812;2024-01-30T13:55:33;15.85;;;6.82;;
78197;SDS011;67472;51.554;7.812;2024-01-30T13:58:22;10.63;;;6.22;;
78197;SDS011;67472;51.554;7.812;2024-01-30T14:01:09;10.68;;;6.43;;
78197;SDS011;67472;51.554;7.812;2024-01-30T14:03:55;12.98;;;6.40;;
78197;SDS011;67472;51.554;7.812;2024-01-30T14:06:41;11.65;;;6.22;;
78197;SDS011;67472;51.554;7.812;2024-01-30T14:09:30;14.40;;;6.65;;
78197;SDS011;67472;51.554;7.812;2024-01-30T14:12:17;13.45;;;7.10;;
78197;SDS011;67472;51.554;7.812;2024-01-30T14:15:07;14.50;;;6.53;;
78197;SDS011;67472;51.554;7.812;2024-01-30T14:17:54;11.88;;;6.93;;
78197;SDS011;67472;51.554;7.812;2024-01-30T14:20:42;10.88;;;6.97;;
78197;SDS011;67472;51.554;7.812;2024-01-30T14:23:32;10.95;;;6.40;;
78197;SDS011;67472;51.554;7.812;2024-01-30T14:26:19;12.60;;;6.90;;
78197;SDS011;67472;51.554;7.812;2024-01-30T14:29:07;13.10;;;7.47;;
78197;SDS011;67472;51.554;7.812;2024-01-30T14:31:55;17.98;;;7.10;;
78197;SDS011;67472;51.554;7.812;2024-01-30T14:34:43;11.68;;;6.80;;
78197;SDS011;67472;51.554;7.812;2024-01-30T14:37:29;12.40;;;6.30;;
78197;SDS011;67472;51.554;7.812;2024-01-30T14:40:17;13.52;;;6.57;;
78197;SDS011;67472;51.554;7.812;2024-01-30T14:43:03;16.30;;;6.70;;
78197;SDS011;67472;51.554;7.812;2024-01-30T14:45:50;12.38;;;7.05;;
78197;SDS011;67472;51.554;7.812;2024-01-30T14:48:38;15.05;;;6.70;;
78197;SDS011;67472;51.554;7.812;2024-01-30T14:51:24;9.50;;;7.30;;
78197;SDS011;67472;51.554;7.812;2024-01-30T14:54:11;14.65;;;7.55;;
78197;SDS011;67472;51.554;7.812;2024-01-30T14:56:57;12.93;;;6.35;;
78197;SDS011;67472;51.554;7.812;2024-01-30T14:59:45;14.07;;;6.85;;
78197;SDS011;67472;51.554;7.812;2024-01-30T15:02:33;10.07;;;6.80;;
78197;SDS011;67472;51.554;7.812;2024-01-30T15:05:21;14.38;;;7.70;;
78197;SDS011;67472;51.554;7.812;2024-01-30T15:08:08;13.05;;;7.55;;
78197;SDS011;67472;51.554;7.812;2024-01-30T15:10:54;10.93;;;7.13;;
78197;SDS011;67472;51.554;7.812;2024-01-30T15:13:42;10.60;;;7.38;;
78197;SDS011;67472;51.554;7.812;2024-01-30T15:16:30;12.93;;;7.78;;
78197;SDS011;67472;51.554;7.812;2024-01-30T15:19:16;15.27;;;6.65;;
78197;SDS011;67472;51.554;7.812;2024-01-30T15:22:04;10.45;;;7.40;;
78197;SDS011;67472;51.554;7.812;2024-01-30T15:24:51;13.88;;;7.47;;
78197;SDS011;67472;51.554;7.812;2024-01-30T15:27:39;8.65;;;6.75;;
78197;SDS011;67472;51.554;7.812;2024-01-30T15:30:27;13.77;;;7.20;;
78197;SDS011;67472;51.554;7.812;2024-01-30T15:33:14;12.90;;;7.18;;
78197;SDS011;67472;51.554;7.812;2024-01-30T15:36:00;9.77;;;7.05;;
78197;SDS011;67472;51.554;7.812;2024-01-30T15:38:48;10.07;;;6.75;;
78197;SDS011;67472;51.554;7.812;2024-01-30T15:41:34;13.32;;;6.85;;
78197;SDS011;67472;51.554;7.812;2024-01-30T15:44:21;12.90;;;7.00;;
78197;SDS011;67472;51.554;7.812;2024-01-30T15:47:08;11.60;;;6.47;;
78197;SDS011;67472;51.554;7.812;2024-01-30T15:49:56;9.13;;;6.50;;
78197;SDS011;67472;51.554;7.812;2024-01-30T15:52:42;10.65;;;5.65;;
78197;SDS011;67472;51.554;7.812;2024-01-30T15:55:32;12.55;;;6.20;;
78197;SDS011;67472;51.554;7.812;2024-01-30T15:58:19;17.02;;;7.78;;
78197;SDS011;67472;51.554;7.812;2024-01-30T16:01:11;9.57;;;6.63;;
78197;SDS011;67472;51.554;7.812;2024-01-30T16:04:01;11.40;;;6.30;;
78197;SDS011;67472;51.554;7.812;2024-01-30T16:06:47;9.75;;;5.93;;
78197;SDS011;67472;51.554;7.812;2024-01-30T16:09:33;8.27;;;6.00;;
78197;SDS011;67472;51.554;7.812;2024-01-30T16:12:22;8.55;;;6.22;;
78197;SDS011;67472;51.554;7.812;2024-01-30T16:15:08;12.52;;;6.97;;
78197;SDS011;67472;51.554;7.812;2024-01-30T16:17:55;10.38;;;6.75;;
78197;SDS011;67472;51.554;7.812;2024-01-30T16:20:41;10.88;;;6.13;;
78197;SDS011;67472;51.554;7.812;2024-01-30T16:23:30;12.07;;;7.28;;
78197;SDS011;67472;51.554;7.812;2024-01-30T16:26:37;9.68;;;6.50;;
78197;SDS011;67472;51.554;7.812;2024-01-30T16:29:47;15.35;;;7.63;;
78197;SDS011;67472;51.554;7.812;2024-01-30T16:32:56;14.00;;;8.07;;
78197;SDS011;67472;51.554;7.812;2024-01-30T16:36:15;11.32;;;7.43;;
78197;SDS011;67472;51.554;7.812;2024-01-30T16:39:21;14.23;;;8.10;;
78197;SDS011;67472;51.554;7.812;2024-01-30T16:42:30;15.52;;;7.85;;
78197;SDS011;67472;51.554;7.812;2024-01-30T16:45:39;12.50;;;7.15;;
78197;SDS011;67472;51.554;7.812;2024-01-30T16:48:46;11.57;;;6.70;;
78197;SDS011;67472;51.554;7.812;2024-01-30T16:51:55;12.45;;;6.63;;
78197;SDS011;67472;51.554;7.812;2024-01-30T16:55:02;7.80;;;5.43;;